createdAt,value
2023-02-04T00:00:31.377Z,998.00
2023-02-04T00:01:30.905Z,998.00
2023-02-04T00:02:33.239Z,998.00
2023-02-04T00:03:30.901Z,998.00
2023-02-04T00:04:31.030Z,998.00
2023-02-04T00:05:30.987Z,998.00
2023-02-04T00:06:31.021Z,998.00
2023-02-04T00:07:31.029Z,998.00
2023-02-04T00:08:31.102Z,998.00
2023-02-04T00:09:30.860Z,998.00
2023-02-04T00:10:31.208Z,998.00
2023-02-04T00:11:30.922Z,998.00
2023-02-04T00:12:31.060Z,998.00
2023-02-04T00:13:30.730Z,998.00
2023-02-04T00:14:30.936Z,998.00
2023-02-04T00:15:30.732Z,998.00
2023-02-04T00:16:30.965Z,998.00
2023-02-04T00:17:30.689Z,998.00
2023-02-04T00:18:30.862Z,998.00
2023-02-04T00:19:30.775Z,998.00
2023-02-04T00:20:31.362Z,998.00
2023-02-04T00:21:30.756Z,998.00
2023-02-04T00:22:31.710Z,998.00
2023-02-04T00:23:30.710Z,998.00
2023-02-04T00:24:30.745Z,998.00
2023-02-04T00:25:30.738Z,998.00
2023-02-04T00:26:30.888Z,998.00
2023-02-04T00:27:30.542Z,998.00
2023-02-04T00:28:30.570Z,998.00
2023-02-04T00:29:30.610Z,998.00
2023-02-04T00:30:31.069Z,998.00
2023-02-04T00:31:30.612Z,998.00
2023-02-04T00:32:30.636Z,998.00
2023-02-04T00:33:30.522Z,998.00
2023-02-04T00:34:30.675Z,998.00
2023-02-04T00:35:30.513Z,998.00
2023-02-04T00:36:30.631Z,998.00
2023-02-04T00:37:30.483Z,998.00
2023-02-04T00:38:30.541Z,998.00
2023-02-04T00:39:30.571Z,998.00
2023-02-04T00:40:30.755Z,998.00
2023-02-04T00:41:30.393Z,998.00
2023-02-04T00:42:30.675Z,998.00
2023-02-04T00:43:30.377Z,998.00
2023-02-04T00:44:30.436Z,998.00
2023-02-04T00:45:30.389Z,998.00
2023-02-04T00:46:30.542Z,998.00
2023-02-04T00:47:30.308Z,998.00
2023-02-04T00:48:30.310Z,998.00
2023-02-04T00:49:30.286Z,998.00
2023-02-04T00:50:30.700Z,998.00
2023-02-04T00:51:30.302Z,998.00
2023-02-04T00:52:30.530Z,998.00
2023-02-04T00:53:30.210Z,998.00
2023-02-04T00:54:30.230Z,998.00
2023-02-04T00:55:30.299Z,998.00
2023-02-04T00:56:30.388Z,998.00
2023-02-04T00:57:30.283Z,998.00
2023-02-04T00:58:30.333Z,998.00
2023-02-04T00:59:30.179Z,998.00
2023-02-04T01:00:30.606Z,998.00
2023-02-04T01:01:30.189Z,998.00
2023-02-04T01:02:30.280Z,998.00
2023-02-04T01:03:30.244Z,998.00
2023-02-04T01:04:30.268Z,998.00
2023-02-04T01:05:30.088Z,998.00
2023-02-04T01:06:30.237Z,998.00
2023-02-04T01:07:30.103Z,998.00
2023-02-04T01:08:30.199Z,998.00
2023-02-04T01:09:30.086Z,998.00
2023-02-04T01:10:30.412Z,998.00
2023-02-04T01:11:30.170Z,998.00
2023-02-04T01:12:30.922Z,998.00
2023-02-04T01:13:30.088Z,998.00
2023-02-04T01:14:30.145Z,998.00
2023-02-04T01:15:29.948Z,998.00
2023-02-04T01:16:51.292Z,998.00
2023-02-04T01:17:29.909Z,998.00
2023-02-04T01:18:29.920Z,998.00
2023-02-04T01:19:29.949Z,998.00
2023-02-04T01:20:31.469Z,998.00
2023-02-04T01:21:30.024Z,998.00
2023-02-04T01:22:29.862Z,998.00
2023-02-04T01:23:29.822Z,998.00
2023-02-04T01:24:29.859Z,998.00
2023-02-04T01:25:29.884Z,998.00
2023-02-04T01:26:30.131Z,998.00
2023-02-04T01:27:29.859Z,998.00
2023-02-04T01:28:29.847Z,998.00
2023-02-04T01:29:29.776Z,998.00
2023-02-04T01:30:30.284Z,998.00
2023-02-04T01:31:29.867Z,998.00
2023-02-04T01:32:29.907Z,998.00
2023-02-04T01:33:29.778Z,998.00
2023-02-04T01:34:29.736Z,998.00
2023-02-04T01:35:29.736Z,998.00
2023-02-04T01:36:29.773Z,998.00
2023-02-04T01:37:29.626Z,998.00
2023-02-04T01:38:29.934Z,998.00
2023-02-04T01:39:29.602Z,998.00
2023-02-04T01:40:30.234Z,998.00
2023-02-04T01:41:29.750Z,998.00
2023-02-04T01:42:29.654Z,998.00
2023-02-04T01:43:29.560Z,998.00
2023-02-04T01:44:29.860Z,998.00
2023-02-04T01:45:29.588Z,998.00
2023-02-04T01:46:29.614Z,998.00
2023-02-04T01:47:29.529Z,998.00
2023-02-04T01:48:29.615Z,998.00
2023-02-04T01:49:29.679Z,998.00
2023-02-04T01:50:29.917Z,998.00
2023-02-04T01:51:29.540Z,998.00
2023-02-04T01:52:29.681Z,998.00
2023-02-04T01:53:29.433Z,998.00
2023-02-04T01:54:29.476Z,998.00
2023-02-04T01:55:29.430Z,998.00
2023-02-04T01:56:29.484Z,998.00
2023-02-04T01:57:29.404Z,998.00
2023-02-04T01:58:29.511Z,998.00
2023-02-04T01:59:29.525Z,998.00
2023-02-04T02:00:29.868Z,998.00
2023-02-04T02:01:29.515Z,998.00
2023-02-04T02:02:30.629Z,998.00
2023-02-04T02:03:29.269Z,998.00
2023-02-04T02:04:29.416Z,998.00
2023-02-04T02:05:29.343Z,998.00
2023-02-04T02:06:29.452Z,998.00
2023-02-04T02:07:29.282Z,998.00
2023-02-04T02:08:29.424Z,998.00
2023-02-04T02:09:29.261Z,998.00
2023-02-04T02:10:29.676Z,998.00
2023-02-04T02:11:29.174Z,998.00
2023-02-04T02:12:29.170Z,998.00
2023-02-04T02:13:29.198Z,998.00
2023-02-04T02:14:29.357Z,998.00
2023-02-04T02:15:29.137Z,998.00
2023-02-04T02:16:30.337Z,998.00
2023-02-04T02:17:29.186Z,998.00
2023-02-04T02:18:29.120Z,998.00
2023-02-04T02:19:29.202Z,998.00
2023-02-04T02:20:31.667Z,998.00
2023-02-04T02:21:29.066Z,998.00
2023-02-04T02:22:29.138Z,998.00
2023-02-04T02:23:29.161Z,998.00
2023-02-04T02:24:29.077Z,998.00
2023-02-04T02:25:29.065Z,998.00
2023-02-04T02:26:29.108Z,998.00
2023-02-04T02:27:29.006Z,998.00
2023-02-04T02:28:28.962Z,998.00
2023-02-04T02:29:28.906Z,998.00
2023-02-04T02:30:29.236Z,998.00
2023-02-04T02:31:28.957Z,998.00
2023-02-04T02:32:28.932Z,998.00
2023-02-04T02:33:28.841Z,998.00
2023-02-04T02:34:28.920Z,998.00
2023-02-04T02:35:28.830Z,998.00
2023-02-04T02:36:28.913Z,998.00
2023-02-04T02:37:28.791Z,998.00
2023-02-04T02:38:28.877Z,998.00
2023-02-04T02:39:28.776Z,998.00
2023-02-04T02:40:29.307Z,998.00
2023-02-04T02:41:28.749Z,998.00
2023-02-04T02:42:28.752Z,998.00
2023-02-04T02:43:28.721Z,998.00
2023-02-04T02:44:28.818Z,998.00
2023-02-04T02:45:28.682Z,998.00
2023-02-04T02:46:28.801Z,998.00
2023-02-04T02:47:28.659Z,998.00
2023-02-04T02:48:28.698Z,998.00
2023-02-04T02:49:28.629Z,998.00
2023-02-04T02:50:28.956Z,998.00
2023-02-04T02:51:28.609Z,998.00
2023-02-04T02:52:28.620Z,998.00
2023-02-04T02:53:28.603Z,998.00
2023-02-04T02:54:28.630Z,998.00
2023-02-04T02:55:28.578Z,998.00
2023-02-04T02:56:28.606Z,998.00
2023-02-04T02:57:28.531Z,998.00
2023-02-04T02:58:28.556Z,998.00
2023-02-04T02:59:28.502Z,998.00
2023-02-04T03:00:28.829Z,998.00
2023-02-04T03:01:28.494Z,998.00
2023-02-04T03:02:28.549Z,998.00
2023-02-04T03:03:28.444Z,998.00
2023-02-04T03:04:28.501Z,998.00
2023-02-04T03:05:28.412Z,998.00
2023-02-04T03:06:28.414Z,998.00
2023-02-04T03:07:28.393Z,998.00
2023-02-04T03:08:28.473Z,998.00
2023-02-04T03:09:28.351Z,998.00
2023-02-04T03:10:28.582Z,998.00
2023-02-04T03:11:28.334Z,998.00
2023-02-04T03:12:28.353Z,998.00
2023-02-04T03:13:28.305Z,998.00
2023-02-04T03:14:28.420Z,997.00
2023-02-04T03:15:28.305Z,997.00
2023-02-04T03:16:28.382Z,997.00
2023-02-04T03:17:28.251Z,997.00
2023-02-04T03:18:28.298Z,997.00
2023-02-04T03:19:28.242Z,997.00
2023-02-04T03:20:28.408Z,997.00
2023-02-04T03:21:28.215Z,997.00
2023-02-04T03:22:28.223Z,997.00
2023-02-04T03:23:28.176Z,997.00
2023-02-04T03:24:28.239Z,997.00
2023-02-04T03:25:28.166Z,997.00
2023-02-04T03:26:28.202Z,997.00
2023-02-04T03:27:28.116Z,997.00
2023-02-04T03:28:28.166Z,997.00
2023-02-04T03:29:29.791Z,997.00
2023-02-04T03:30:28.201Z,997.00
2023-02-04T03:31:28.169Z,997.00
2023-02-04T03:32:28.199Z,997.00
2023-02-04T03:33:28.080Z,997.00
2023-02-04T03:34:28.110Z,997.00
2023-02-04T03:35:28.046Z,997.00
2023-02-04T03:36:28.126Z,997.00
2023-02-04T03:37:27.997Z,997.00
2023-02-04T03:38:28.094Z,997.00
2023-02-04T03:39:27.957Z,997.00
2023-02-04T03:40:28.107Z,997.00
2023-02-04T03:41:27.940Z,997.00
2023-02-04T03:42:27.968Z,998.00
2023-02-04T03:43:27.916Z,997.00
2023-02-04T03:44:28.032Z,997.00
2023-02-04T03:45:32.426Z,997.00
2023-02-04T03:46:28.991Z,997.00
2023-02-04T03:47:27.888Z,997.00
2023-02-04T03:48:27.845Z,998.00
2023-02-04T03:49:27.920Z,998.00
2023-02-04T03:50:27.834Z,998.00
2023-02-04T03:51:27.931Z,997.00
2023-02-04T03:52:27.797Z,997.00
2023-02-04T03:53:27.868Z,998.00
2023-02-04T03:54:27.767Z,998.00
2023-02-04T03:55:27.899Z,998.00
2023-02-04T03:56:27.758Z,998.00
2023-02-04T03:57:27.836Z,998.00
2023-02-04T03:58:27.708Z,998.00
2023-02-04T03:59:27.877Z,998.00
2023-02-04T04:00:27.688Z,998.00
2023-02-04T04:01:28.784Z,998.00
2023-02-04T04:02:27.702Z,998.00
2023-02-04T04:03:27.709Z,998.00
2023-02-04T04:04:27.645Z,998.00
2023-02-04T04:05:27.788Z,998.00
2023-02-04T04:06:27.605Z,998.00
2023-02-04T04:07:28.743Z,998.00
2023-02-04T04:08:27.604Z,998.00
2023-02-04T04:09:27.748Z,998.00
2023-02-04T04:10:27.557Z,998.00
2023-02-04T04:11:27.618Z,998.00
2023-02-04T04:12:27.527Z,998.00
2023-02-04T04:13:28.605Z,998.00
2023-02-04T04:14:27.528Z,998.00
2023-02-04T04:15:28.577Z,999.00
2023-02-04T04:16:27.487Z,999.00
2023-02-04T04:17:27.596Z,999.00
2023-02-04T04:18:27.447Z,999.00
2023-02-04T04:19:27.532Z,999.00
2023-02-04T04:20:27.447Z,999.00
2023-02-04T04:21:27.458Z,999.00
2023-02-04T04:22:27.399Z,999.00
2023-02-04T04:23:28.518Z,999.00
2023-02-04T04:24:27.391Z,999.00
2023-02-04T04:25:48.475Z,999.00
2023-02-04T04:26:27.336Z,999.00
2023-02-04T04:27:27.476Z,999.00
2023-02-04T04:28:27.324Z,1000.00
2023-02-04T04:29:27.382Z,999.00
2023-02-04T04:30:27.283Z,1000.00
2023-02-04T04:31:27.510Z,1000.00
2023-02-04T04:32:27.295Z,1000.00
2023-02-04T04:33:27.301Z,1000.00
2023-02-04T04:34:27.225Z,1000.00
2023-02-04T04:35:27.321Z,1000.00
2023-02-04T04:36:27.201Z,1000.00
2023-02-04T04:37:27.278Z,1000.00
2023-02-04T04:38:27.179Z,999.00
2023-02-04T04:39:27.241Z,1000.00
2023-02-04T04:40:27.138Z,1000.00
2023-02-04T04:41:27.148Z,1000.00
2023-02-04T04:42:27.118Z,1000.00
2023-02-04T04:43:27.218Z,999.00
2023-02-04T04:44:27.098Z,1000.00
2023-02-04T04:45:27.177Z,999.00
2023-02-04T04:46:27.117Z,1000.00
2023-02-04T04:47:27.087Z,1000.00
2023-02-04T04:48:27.098Z,1000.00
2023-02-04T04:49:35.813Z,1000.00
2023-02-04T04:50:27.019Z,1000.00
2023-02-04T04:51:27.079Z,1000.00
2023-02-04T04:52:26.987Z,1000.00
2023-02-04T04:53:28.136Z,1000.00
2023-02-04T04:54:26.955Z,1000.00
2023-02-04T04:55:27.094Z,1000.00
2023-02-04T04:56:26.926Z,1000.00
2023-02-04T04:57:26.974Z,1000.00
2023-02-04T04:58:26.905Z,1000.00
2023-02-04T04:59:27.018Z,1000.00
2023-02-04T05:00:26.883Z,1000.00
2023-02-04T05:01:27.008Z,1000.00
2023-02-04T05:02:26.854Z,1000.00
2023-02-04T05:03:27.003Z,1000.00
2023-02-04T05:04:26.886Z,1000.00
2023-02-04T05:05:27.850Z,1000.00
2023-02-04T05:06:26.807Z,1000.00
2023-02-04T05:07:26.939Z,1000.00
2023-02-04T05:08:26.835Z,1000.00
2023-02-04T05:09:26.847Z,1001.00
2023-02-04T05:10:26.748Z,1001.00
2023-02-04T05:11:26.763Z,1001.00
2023-02-04T05:12:26.728Z,1001.00
2023-02-04T05:13:26.837Z,1001.00
2023-02-04T05:14:26.704Z,1001.00
2023-02-04T05:15:26.790Z,1001.00
2023-02-04T05:16:26.757Z,1001.00
2023-02-04T05:17:28.621Z,1001.00
2023-02-04T05:18:26.640Z,1001.00
2023-02-04T05:19:26.784Z,1001.00
2023-02-04T05:20:26.616Z,1001.00
2023-02-04T05:21:26.631Z,1001.00
2023-02-04T05:22:26.591Z,1001.00
2023-02-04T05:23:26.643Z,1001.00
2023-02-04T05:24:26.566Z,1001.00
2023-02-04T05:25:26.610Z,1001.00
2023-02-04T05:26:30.763Z,1001.00
2023-02-04T05:27:26.530Z,1001.00
2023-02-04T05:28:26.585Z,1001.00
2023-02-04T05:29:26.502Z,1001.00
2023-02-04T05:30:26.649Z,1001.00
2023-02-04T05:31:26.554Z,1001.00
2023-02-04T05:32:26.508Z,1001.00
2023-02-04T05:33:26.470Z,1001.00
2023-02-04T05:34:26.522Z,1001.00
2023-02-04T05:35:26.420Z,1001.00
2023-02-04T05:36:26.439Z,1001.00
2023-02-04T05:37:26.401Z,1001.00
2023-02-04T05:38:26.448Z,1001.00
2023-02-04T05:39:26.357Z,1001.00
2023-02-04T05:40:26.460Z,1001.00
2023-02-04T05:41:26.340Z,1001.00
2023-02-04T05:42:26.375Z,1001.00
2023-02-04T05:43:26.326Z,1001.00
2023-02-04T05:44:27.516Z,1001.00
2023-02-04T05:45:26.284Z,1001.00
2023-02-04T05:46:26.325Z,1001.00
2023-02-04T05:47:26.256Z,1001.00
2023-02-04T05:48:26.315Z,1001.00
2023-02-04T05:49:26.246Z,1001.00
2023-02-04T05:50:26.236Z,1001.00
2023-02-04T05:51:26.197Z,1002.00
2023-02-04T05:52:26.237Z,1002.00
2023-02-04T05:53:26.338Z,1002.00
2023-02-04T05:54:26.255Z,1002.00
2023-02-04T05:55:26.164Z,1002.00
2023-02-04T05:56:26.173Z,1002.00
2023-02-04T05:57:26.125Z,1002.00
2023-02-04T05:58:26.174Z,1002.00
2023-02-04T05:59:26.097Z,1002.00
2023-02-04T06:00:26.094Z,1002.00
2023-02-04T06:01:26.074Z,1002.00
2023-02-04T06:02:47.103Z,1002.00
2023-02-04T06:03:26.112Z,1002.00
2023-02-04T06:04:26.171Z,1002.00
2023-02-04T06:05:26.014Z,1002.00
2023-02-04T06:06:26.041Z,1002.00
2023-02-04T06:07:26.003Z,1002.00
2023-02-04T06:08:26.061Z,1002.00
2023-02-04T06:09:25.961Z,1002.00
2023-02-04T06:10:25.966Z,1002.00
2023-02-04T06:11:25.925Z,1002.00
2023-02-04T06:12:25.973Z,1002.00
2023-02-04T06:13:25.924Z,1002.00
2023-02-04T06:14:25.990Z,1002.00
2023-02-04T06:15:25.874Z,1003.00
2023-02-04T06:16:25.972Z,1003.00
2023-02-04T06:17:25.852Z,1003.00
2023-02-04T06:18:25.920Z,1003.00
2023-02-04T06:19:25.841Z,1003.00
2023-02-04T06:20:27.928Z,1003.00
2023-02-04T06:21:25.801Z,1003.00
2023-02-04T06:22:25.851Z,1003.00
2023-02-04T06:23:25.760Z,1003.00
2023-02-04T06:24:25.855Z,1003.00
2023-02-04T06:25:25.765Z,1003.00
2023-02-04T06:26:25.807Z,1003.00
2023-02-04T06:27:25.730Z,1003.00
2023-02-04T06:28:25.782Z,1003.00
2023-02-04T06:29:25.702Z,1003.00
2023-02-04T06:30:25.812Z,1003.00
2023-02-04T06:31:25.755Z,1003.00
2023-02-04T06:32:25.710Z,1003.00
2023-02-04T06:33:25.646Z,1003.00
2023-02-04T06:34:25.737Z,1003.00
2023-02-04T06:35:25.622Z,1003.00
2023-02-04T06:36:25.643Z,1004.00
2023-02-04T06:37:25.608Z,1004.00
2023-02-04T06:38:25.677Z,1004.00
2023-02-04T06:39:25.566Z,1004.00
2023-02-04T06:40:25.569Z,1004.00
2023-02-04T06:41:25.542Z,1004.00
2023-02-04T06:42:25.587Z,1004.00
2023-02-04T06:43:25.555Z,1004.00
2023-02-04T06:44:25.625Z,1004.00
2023-02-04T06:45:25.481Z,1004.00
2023-02-04T06:46:25.538Z,1004.00
2023-02-04T06:47:25.454Z,1004.00
2023-02-04T06:48:25.529Z,1004.00
2023-02-04T06:49:25.449Z,1004.00
2023-02-04T06:50:25.446Z,1004.00
2023-02-04T06:51:25.401Z,1004.00
2023-02-04T06:52:25.454Z,1004.00
2023-02-04T06:53:25.382Z,1004.00
2023-02-04T06:54:25.462Z,1004.00
2023-02-04T06:55:25.361Z,1004.00
2023-02-04T06:56:25.379Z,1004.00
2023-02-04T06:57:25.345Z,1004.00
2023-02-04T06:58:26.423Z,1004.00
2023-02-04T06:59:25.303Z,1004.00
2023-02-04T07:00:25.298Z,1004.00
2023-02-04T07:01:25.356Z,1004.00
2023-02-04T07:02:25.343Z,1004.00
2023-02-04T07:03:25.248Z,1005.00
2023-02-04T07:04:25.334Z,1005.00
2023-02-04T07:05:25.259Z,1005.00
2023-02-04T07:06:25.266Z,1005.00
2023-02-04T07:07:25.241Z,1005.00
2023-02-04T07:08:25.313Z,1005.00
2023-02-04T07:09:25.185Z,1005.00
2023-02-04T07:10:25.219Z,1005.00
2023-02-04T07:11:25.137Z,1005.00
2023-02-04T07:12:25.219Z,1005.00
2023-02-04T07:13:25.197Z,1005.00
2023-02-04T07:14:25.259Z,1005.00
2023-02-04T07:15:25.101Z,1005.00
2023-02-04T07:16:27.287Z,1005.00
2023-02-04T07:17:25.060Z,1005.00
2023-02-04T07:18:25.226Z,1005.00
2023-02-04T07:19:25.048Z,1005.00
2023-02-04T07:20:25.040Z,1005.00
2023-02-04T07:21:25.120Z,1005.00
2023-02-04T07:22:25.061Z,1005.00
2023-02-04T07:23:24.966Z,1005.00
2023-02-04T07:24:25.150Z,1005.00
2023-02-04T07:25:24.988Z,1005.00
2023-02-04T07:26:24.978Z,1005.00
2023-02-04T07:27:24.926Z,1005.00
2023-02-04T07:28:24.996Z,1005.00
2023-02-04T07:29:25.791Z,1005.00
2023-02-04T07:30:24.933Z,1005.00
2023-02-04T07:31:24.956Z,1005.00
2023-02-04T07:32:24.919Z,1005.00
2023-02-04T07:33:24.864Z,1005.00
2023-02-04T07:34:25.878Z,1005.00
2023-02-04T07:35:24.816Z,1005.00
2023-02-04T07:36:24.987Z,1005.00
2023-02-04T07:37:24.806Z,1006.00
2023-02-04T07:38:24.861Z,1006.00
2023-02-04T07:39:24.754Z,1006.00
2023-02-04T07:40:24.773Z,1006.00
2023-02-04T07:41:24.769Z,1006.00
2023-02-04T07:42:24.809Z,1006.00
2023-02-04T07:43:24.748Z,1006.00
2023-02-04T07:44:24.791Z,1006.00
2023-02-04T07:45:24.682Z,1006.00
2023-02-04T07:46:26.012Z,1006.00
2023-02-04T07:47:24.650Z,1006.00
2023-02-04T07:48:24.720Z,1006.00
2023-02-04T07:49:24.643Z,1006.00
2023-02-04T07:50:24.636Z,1006.00
2023-02-04T07:51:25.172Z,1006.00
2023-02-04T07:52:24.644Z,1006.00
2023-02-04T07:53:24.577Z,1006.00
2023-02-04T07:54:24.659Z,1006.00
2023-02-04T07:55:24.566Z,1006.00
2023-02-04T07:56:24.573Z,1006.00
2023-02-04T07:57:24.511Z,1006.00
2023-02-04T07:58:24.590Z,1006.00
2023-02-04T07:59:24.491Z,1006.00
2023-02-04T08:00:24.490Z,1006.00
2023-02-04T08:01:24.515Z,1006.00
2023-02-04T08:02:24.527Z,1007.00
2023-02-04T08:03:24.440Z,1007.00
2023-02-04T08:04:24.519Z,1007.00
2023-02-04T08:05:24.409Z,1007.00
2023-02-04T08:06:24.429Z,1007.00
2023-02-04T08:07:24.389Z,1007.00
2023-02-04T08:08:24.450Z,1007.00
2023-02-04T08:09:24.348Z,1007.00
2023-02-04T08:10:25.411Z,1007.00
2023-02-04T08:11:24.336Z,1007.00
2023-02-04T08:12:24.377Z,1007.00
2023-02-04T08:13:24.327Z,1007.00
2023-02-04T08:14:24.409Z,1007.00
2023-02-04T08:15:24.277Z,1007.00
2023-02-04T08:16:24.381Z,1007.00
2023-02-04T08:17:24.243Z,1007.00
2023-02-04T08:18:24.316Z,1007.00
2023-02-04T08:19:24.236Z,1007.00
2023-02-04T08:20:24.237Z,1007.00
2023-02-04T08:21:24.192Z,1007.00
2023-02-04T08:22:24.256Z,1007.00
2023-02-04T08:23:24.161Z,1007.00
2023-02-04T08:24:24.265Z,1007.00
2023-02-04T08:25:24.153Z,1007.00
2023-02-04T08:26:24.166Z,1007.00
2023-02-04T08:27:24.120Z,1008.00
2023-02-04T08:28:24.202Z,1008.00
2023-02-04T08:29:24.144Z,1008.00
2023-02-04T08:30:24.276Z,1008.00
2023-02-04T08:31:24.306Z,1008.00
2023-02-04T08:32:24.379Z,1008.00
2023-02-04T08:33:24.021Z,1008.00
2023-02-04T08:34:24.142Z,1008.00
2023-02-04T08:35:24.003Z,1008.00
2023-02-04T08:36:24.075Z,1008.00
2023-02-04T08:37:23.987Z,1008.00
2023-02-04T08:38:24.053Z,1008.00
2023-02-04T08:39:23.948Z,1008.00
2023-02-04T08:40:24.051Z,1008.00
2023-02-04T08:41:23.968Z,1008.00
2023-02-04T08:42:23.984Z,1008.00
2023-02-04T08:43:23.908Z,1008.00
2023-02-04T08:44:23.990Z,1008.00
2023-02-04T08:45:23.902Z,1008.00
2023-02-04T08:46:24.200Z,1008.00
2023-02-04T08:47:23.865Z,1008.00
2023-02-04T08:48:24.920Z,1008.00
2023-02-04T08:49:23.876Z,1008.00
2023-02-04T08:50:23.881Z,1008.00
2023-02-04T08:51:23.826Z,1008.00
2023-02-04T08:52:24.945Z,1008.00
2023-02-04T08:53:23.883Z,1008.00
2023-02-04T08:54:23.906Z,1008.00
2023-02-04T08:55:23.948Z,1008.00
2023-02-04T08:56:23.798Z,1008.00
2023-02-04T08:57:23.737Z,1008.00
2023-02-04T08:58:23.811Z,1008.00
2023-02-04T08:59:23.704Z,1008.00
2023-02-04T09:00:23.738Z,1008.00
2023-02-04T09:01:23.799Z,1008.00
2023-02-04T09:02:23.829Z,1008.00
2023-02-04T09:03:23.840Z,1008.00
2023-02-04T09:04:23.670Z,1008.00
2023-02-04T09:05:23.714Z,1008.00
2023-02-04T09:06:24.742Z,1009.00
2023-02-04T09:07:23.673Z,1009.00
2023-02-04T09:08:23.686Z,1009.00
2023-02-04T09:09:26.110Z,1009.00
2023-02-04T09:10:23.694Z,1009.00
2023-02-04T09:11:23.568Z,1009.00
2023-02-04T09:12:23.615Z,1009.00
2023-02-04T09:13:23.558Z,1009.00
2023-02-04T09:14:23.630Z,1009.00
2023-02-04T09:15:23.501Z,1009.00
2023-02-04T09:16:23.605Z,1009.00
2023-02-04T09:17:23.480Z,1009.00
2023-02-04T09:18:23.560Z,1009.00
2023-02-04T09:19:23.471Z,1009.00
2023-02-04T09:20:23.524Z,1009.00
2023-02-04T09:21:23.431Z,1009.00
2023-02-04T09:22:23.482Z,1009.00
2023-02-04T09:23:23.404Z,1009.00
2023-02-04T09:24:23.582Z,1009.00
2023-02-04T09:25:23.395Z,1009.00
2023-02-04T09:26:23.429Z,1009.00
2023-02-04T09:27:23.351Z,1009.00
2023-02-04T09:28:23.431Z,1009.00
2023-02-04T09:29:23.328Z,1009.00
2023-02-04T09:30:23.381Z,1009.00
2023-02-04T09:31:23.434Z,1009.00
2023-02-04T09:32:23.462Z,1009.00
2023-02-04T09:33:23.283Z,1009.00
2023-02-04T09:34:23.268Z,1009.00
2023-02-04T09:35:23.611Z,1009.00
2023-02-04T09:36:23.461Z,1009.00
2023-02-04T09:37:23.345Z,1009.00
2023-02-04T09:38:23.215Z,1009.00
2023-02-04T09:39:23.307Z,1009.00
2023-02-04T09:40:23.287Z,1009.00
2023-02-04T09:41:23.223Z,1009.00
2023-02-04T09:42:23.158Z,1009.00
2023-02-04T09:43:23.295Z,1009.00
2023-02-04T09:44:23.145Z,1009.00
2023-02-04T09:45:23.145Z,1010.00
2023-02-04T09:46:23.140Z,1010.00
2023-02-04T09:47:23.171Z,1010.00
2023-02-04T09:48:23.080Z,1010.00
2023-02-04T09:49:23.137Z,1010.00
2023-02-04T09:50:23.051Z,1010.00
2023-02-04T09:51:23.088Z,1010.00
2023-02-04T09:52:23.027Z,1010.00
2023-02-04T09:53:23.105Z,1010.00
2023-02-04T09:54:23.027Z,1010.00
2023-02-04T09:55:23.066Z,1010.00
2023-02-04T09:56:22.970Z,1010.00
2023-02-04T09:57:23.017Z,1010.00
2023-02-04T09:58:22.959Z,1010.00
2023-02-04T09:59:23.292Z,1010.00
2023-02-04T10:00:22.920Z,1010.00
2023-02-04T10:01:23.613Z,1010.00
2023-02-04T10:02:22.961Z,1010.00
2023-02-04T10:03:23.075Z,1010.00
2023-02-04T10:04:22.908Z,1010.00
2023-02-04T10:05:22.884Z,1010.00
2023-02-04T10:06:22.883Z,1010.00
2023-02-04T10:07:23.041Z,1010.00
2023-02-04T10:08:22.847Z,1010.00
2023-02-04T10:09:23.043Z,1010.00
2023-02-04T10:10:23.014Z,1010.00
2023-02-04T10:11:23.008Z,1010.00
2023-02-04T10:12:24.118Z,1010.00
2023-02-04T10:13:22.770Z,1010.00
2023-02-04T10:14:22.731Z,1010.00
2023-02-04T10:15:22.734Z,1010.00
2023-02-04T10:16:22.708Z,1011.00
2023-02-04T10:17:22.742Z,1011.00
2023-02-04T10:18:22.657Z,1011.00
2023-02-04T10:19:22.696Z,1011.00
2023-02-04T10:20:22.640Z,1011.00
2023-02-04T10:21:22.668Z,1011.00
2023-02-04T10:22:22.624Z,1011.00
2023-02-04T10:23:22.682Z,1011.00
2023-02-04T10:24:22.584Z,1011.00
2023-02-04T10:25:22.649Z,1011.00
2023-02-04T10:26:22.552Z,1011.00
2023-02-04T10:27:22.603Z,1011.00
2023-02-04T10:28:22.523Z,1011.00
2023-02-04T10:29:22.630Z,1011.00
2023-02-04T10:30:22.650Z,1011.00
2023-02-04T10:31:22.822Z,1011.00
2023-02-04T10:32:22.524Z,1011.00
2023-02-04T10:33:22.814Z,1011.00
2023-02-04T10:34:22.468Z,1011.00
2023-02-04T10:35:22.490Z,1011.00
2023-02-04T10:36:22.430Z,1011.00
2023-02-04T10:37:22.575Z,1011.00
2023-02-04T10:38:22.401Z,1011.00
2023-02-04T10:39:23.449Z,1011.00
2023-02-04T10:40:22.376Z,1011.00
2023-02-04T10:41:22.409Z,1011.00
2023-02-04T10:42:22.342Z,1011.00
2023-02-04T10:43:22.397Z,1011.00
2023-02-04T10:44:22.328Z,1011.00
2023-02-04T10:45:22.379Z,1011.00
2023-02-04T10:46:22.375Z,1011.00
2023-02-04T10:47:22.460Z,1011.00
2023-02-04T10:48:22.392Z,1011.00
2023-02-04T10:49:22.381Z,1011.00
2023-02-04T10:50:22.329Z,1011.00
2023-02-04T10:51:22.488Z,1011.00
2023-02-04T10:52:22.629Z,1011.00
2023-02-04T10:53:22.340Z,1011.00
2023-02-04T10:54:22.215Z,1011.00
2023-02-04T10:55:24.608Z,1011.00
2023-02-04T10:56:22.390Z,1011.00
2023-02-04T10:57:22.546Z,1011.00
2023-02-04T10:58:22.151Z,1011.00
2023-02-04T10:59:22.255Z,1011.00
2023-02-04T11:00:22.113Z,1011.00
2023-02-04T11:01:22.305Z,1011.00
2023-02-04T11:02:22.122Z,1011.00
2023-02-04T11:03:22.216Z,1011.00
2023-02-04T11:04:22.079Z,1011.00
2023-02-04T11:05:22.072Z,1011.00
2023-02-04T11:06:22.055Z,1011.00
2023-02-04T11:07:22.138Z,1011.00
2023-02-04T11:08:22.021Z,1011.00
2023-02-04T11:09:22.182Z,1011.00
2023-02-04T11:10:21.980Z,1011.00
2023-02-04T11:11:22.120Z,1012.00
2023-02-04T11:12:21.949Z,1011.00
2023-02-04T11:13:22.013Z,1011.00
2023-02-04T11:14:21.927Z,1012.00
2023-02-04T11:15:21.940Z,1012.00
2023-02-04T11:16:21.967Z,1012.00
2023-02-04T11:17:21.974Z,1012.00
2023-02-04T11:18:21.879Z,1012.00
2023-02-04T11:19:21.928Z,1012.00
2023-02-04T11:20:21.847Z,1012.00
2023-02-04T11:21:21.880Z,1012.00
2023-02-04T11:22:21.858Z,1012.00
2023-02-04T11:23:21.898Z,1012.00
2023-02-04T11:24:21.800Z,1012.00
2023-02-04T11:25:21.867Z,1012.00
2023-02-04T11:26:21.839Z,1012.00
2023-02-04T11:27:21.821Z,1012.00
2023-02-04T11:28:21.738Z,1012.00
2023-02-04T11:29:21.838Z,1012.00
2023-02-04T11:30:21.875Z,1012.00
2023-02-04T11:31:21.950Z,1012.00
2023-02-04T11:32:21.730Z,1011.00
2023-02-04T11:33:21.775Z,1012.00
2023-02-04T11:34:21.693Z,1012.00
2023-02-04T11:35:21.676Z,1012.00
2023-02-04T11:36:21.626Z,1012.00
2023-02-04T11:37:21.745Z,1012.00
2023-02-04T11:38:21.634Z,1012.00
2023-02-04T11:39:22.635Z,1012.00
2023-02-04T11:40:21.574Z,1012.00
2023-02-04T11:41:21.615Z,1012.00
2023-02-04T11:42:21.596Z,1012.00
2023-02-04T11:43:22.060Z,1012.00
2023-02-04T11:44:21.523Z,1011.00
2023-02-04T11:45:21.541Z,1011.00
2023-02-04T11:46:21.520Z,1011.00
2023-02-04T11:47:21.556Z,1012.00
2023-02-04T11:48:21.472Z,1012.00
2023-02-04T11:49:21.519Z,1012.00
2023-02-04T11:50:21.440Z,1011.00
2023-02-04T11:51:21.482Z,1011.00
2023-02-04T11:52:21.412Z,1012.00
2023-02-04T11:53:21.500Z,1012.00
2023-02-04T11:54:21.406Z,1011.00
2023-02-04T11:55:21.460Z,1012.00
2023-02-04T11:56:21.351Z,1011.00
2023-02-04T11:57:21.424Z,1012.00
2023-02-04T11:58:21.332Z,1012.00
2023-02-04T11:59:21.431Z,1012.00
2023-02-04T12:00:21.302Z,1012.00
2023-02-04T12:01:21.503Z,1012.00
2023-02-04T12:02:21.328Z,1011.00
2023-02-04T12:03:21.509Z,1012.00
2023-02-04T12:04:21.271Z,1012.00
2023-02-04T12:05:21.275Z,1012.00
2023-02-04T12:06:21.232Z,1012.00
2023-02-04T12:07:21.364Z,1012.00
2023-02-04T12:08:21.213Z,1012.00
2023-02-04T12:09:21.204Z,1012.00
2023-02-04T12:10:21.180Z,1012.00
2023-02-04T12:11:21.214Z,1012.00
2023-02-04T12:12:21.169Z,1012.00
2023-02-04T12:13:21.187Z,1012.00
2023-02-04T12:14:21.131Z,1012.00